createdAt,value
2019-06-01T00:01:05.762Z,16.36
2019-06-01T00:03:32.497Z,16.30
2019-06-01T00:05:59.224Z,16.17
2019-06-01T00:08:25.952Z,17.04
2019-06-01T00:10:52.677Z,16.29
2019-06-01T00:13:19.420Z,16.06
2019-06-01T00:15:46.213Z,16.09
2019-06-01T00:18:12.877Z,16.08
2019-06-01T00:20:40.070Z,16.26
2019-06-01T00:23:06.370Z,16.35
2019-06-01T00:25:33.101Z,16.26
2019-06-01T00:27:59.836Z,17.04
2019-06-01T00:30:27.525Z,16.30
2019-06-01T00:32:53.350Z,16.23
2019-06-01T00:35:20.094Z,16.02
2019-06-01T00:37:47.614Z,15.95
2019-06-01T00:40:13.584Z,15.99
2019-06-01T00:42:40.318Z,15.85
2019-06-01T00:45:07.050Z,15.75
2019-06-01T00:47:33.785Z,15.82
2019-06-01T00:50:00.509Z,15.85
2019-06-01T00:52:27.251Z,15.81
2019-06-01T00:54:54.006Z,15.74
2019-06-01T00:57:22.267Z,15.71
2019-06-01T00:59:48.093Z,15.45
2019-06-01T01:02:14.265Z,15.47
2019-06-01T01:04:41.046Z,15.29
2019-06-01T01:07:07.784Z,15.13
2019-06-01T01:09:34.522Z,14.98
2019-06-01T01:12:01.250Z,15.02
2019-06-01T01:14:28.022Z,15.00
2019-06-01T01:16:55.768Z,15.05
2019-06-01T01:19:21.523Z,15.24
2019-06-01T01:21:49.882Z,15.18
2019-06-01T01:24:15.550Z,15.11
2019-06-01T01:26:42.283Z,15.06
2019-06-01T01:29:09.027Z,14.94
2019-06-01T01:31:35.759Z,14.96
2019-06-01T01:34:02.490Z,15.15
2019-06-01T01:36:29.234Z,14.91
2019-06-01T01:38:56.316Z,14.71
2019-06-01T01:41:22.768Z,15.35
2019-06-01T01:43:50.373Z,15.65
2019-06-01T01:46:16.230Z,15.02
2019-06-01T01:48:42.986Z,14.92
2019-06-01T01:51:09.706Z,14.88
2019-06-01T01:53:36.438Z,14.90
2019-06-01T01:56:03.154Z,15.11
2019-06-01T01:58:29.895Z,14.91
2019-06-01T02:00:58.402Z,14.85
2019-06-01T02:03:23.401Z,14.67
2019-06-01T02:05:50.748Z,15.57
2019-06-01T02:08:16.896Z,15.02
2019-06-01T02:10:43.638Z,15.76
2019-06-01T02:13:10.358Z,15.14
2019-06-01T02:15:37.120Z,15.19
2019-06-01T02:18:04.058Z,15.09
2019-06-01T02:20:30.878Z,14.90
2019-06-01T02:22:58.887Z,14.73
2019-06-01T02:25:24.334Z,15.42
2019-06-01T02:27:51.080Z,14.68
2019-06-01T02:30:17.827Z,14.47
2019-06-01T02:32:44.559Z,14.56
2019-06-01T02:35:11.296Z,14.64
2019-06-01T02:37:38.044Z,15.18
2019-06-01T02:40:05.460Z,15.54
2019-06-01T02:42:31.530Z,15.49
2019-06-01T02:44:59.206Z,15.55
2019-06-01T02:47:25.070Z,15.49
2019-06-01T02:49:51.808Z,15.52
2019-06-01T02:52:18.526Z,14.67
2019-06-01T02:54:45.268Z,14.43
2019-06-01T02:57:11.987Z,14.44
2019-06-01T02:59:38.723Z,14.45
2019-06-01T03:02:10.618Z,14.33
2019-06-01T03:04:32.178Z,14.18
2019-06-01T03:06:59.534Z,15.02
2019-06-01T03:09:25.643Z,14.51
2019-06-01T03:11:53.082Z,15.17
2019-06-01T03:14:19.846Z,15.45
2019-06-01T03:16:46.570Z,14.73
2019-06-01T03:19:13.786Z,14.55
2019-06-01T03:21:40.523Z,14.34
2019-06-01T03:24:08.195Z,14.35
2019-06-01T03:26:39.784Z,14.08
2019-06-01T03:29:07.274Z,13.90
2019-06-01T03:31:33.264Z,13.83
2019-06-01T03:34:01.533Z,14.70
2019-06-01T03:36:26.813Z,14.23
2019-06-01T03:38:53.551Z,14.33
2019-06-01T03:41:20.279Z,14.30
2019-06-01T03:43:47.010Z,14.19
2019-06-01T03:46:13.729Z,14.24
2019-06-01T03:48:40.466Z,14.43
2019-06-01T03:51:08.300Z,15.03
2019-06-01T03:53:33.915Z,15.76
2019-06-01T03:56:01.726Z,15.36
2019-06-01T03:58:27.459Z,15.72
2019-06-01T04:00:54.194Z,15.79
2019-06-01T04:03:20.918Z,15.49
2019-06-01T04:05:47.655Z,15.69
2019-06-01T04:08:14.395Z,15.94
2019-06-01T04:10:41.112Z,15.92
2019-06-01T04:13:07.851Z,16.09
2019-06-01T04:15:34.608Z,16.53
2019-06-01T04:18:01.901Z,16.49
2019-06-01T04:20:28.075Z,16.75
2019-06-01T04:22:54.890Z,17.23
2019-06-01T04:25:21.623Z,16.96
2019-06-01T04:27:48.366Z,16.98
2019-06-01T04:30:15.094Z,17.02
2019-06-01T04:32:49.748Z,16.95
2019-06-01T04:35:08.990Z,17.07
2019-06-01T04:37:35.266Z,17.40
2019-06-01T04:40:03.241Z,17.45
2019-06-01T04:42:28.742Z,17.35
2019-06-01T04:44:55.492Z,17.59
2019-06-01T04:47:22.238Z,18.07
2019-06-01T04:49:48.964Z,18.05
2019-06-01T04:52:15.706Z,18.23
2019-06-01T04:54:42.450Z,18.37
2019-06-01T04:57:09.358Z,18.61
2019-06-01T04:59:37.902Z,18.72
2019-06-01T05:02:02.842Z,18.29
2019-06-01T05:04:29.583Z,18.52
2019-06-01T05:06:56.318Z,18.65
2019-06-01T05:09:23.055Z,18.66
2019-06-01T05:11:49.803Z,19.20
2019-06-01T05:14:16.728Z,19.07
2019-06-01T05:16:43.378Z,19.14
2019-06-01T05:19:10.195Z,19.25
2019-06-01T05:21:36.878Z,19.30
2019-06-01T05:24:03.605Z,19.03
2019-06-01T05:26:30.342Z,19.31
2019-06-01T05:28:57.092Z,19.61
2019-06-01T05:31:25.374Z,19.36
2019-06-01T05:33:50.582Z,19.64
2019-06-01T05:36:18.325Z,19.81
2019-06-01T05:38:44.066Z,19.75
2019-06-01T05:41:11.957Z,20.11
2019-06-01T05:43:37.544Z,20.00
2019-06-01T05:46:04.277Z,19.98
2019-06-01T05:48:31.022Z,20.03
2019-06-01T05:50:57.754Z,20.34
2019-06-01T05:53:24.531Z,20.28
2019-06-01T05:55:51.250Z,20.43
2019-06-01T05:58:19.509Z,20.70
2019-06-01T06:00:44.721Z,20.58
2019-06-01T06:03:14.919Z,21.03
2019-06-01T06:05:38.231Z,20.91
2019-06-01T06:08:05.376Z,20.58
2019-06-01T06:10:32.093Z,21.10
2019-06-01T06:12:58.830Z,20.63
2019-06-01T06:15:25.658Z,20.42
2019-06-01T06:17:52.410Z,20.56
2019-06-01T06:20:20.143Z,20.75
2019-06-01T06:22:45.891Z,20.61
2019-06-01T06:25:14.248Z,20.85
2019-06-01T06:27:39.465Z,21.11
2019-06-01T06:30:06.238Z,21.16
2019-06-01T06:32:32.970Z,21.60
2019-06-01T06:34:59.808Z,22.28
2019-06-01T06:37:26.557Z,22.54
2019-06-01T06:39:53.290Z,21.78
2019-06-01T06:42:20.344Z,22.35
2019-06-01T06:44:46.762Z,21.90
2019-06-01T06:47:14.628Z,21.76
2019-06-01T06:49:40.246Z,21.61
2019-06-01T06:52:06.966Z,21.62
2019-06-01T06:54:33.711Z,21.76
2019-06-01T06:57:00.446Z,21.84
2019-06-01T06:59:27.182Z,21.97
2019-06-01T07:01:53.925Z,21.97
2019-06-01T07:04:21.376Z,22.60
2019-06-01T07:06:47.414Z,22.44
2019-06-01T07:09:14.178Z,22.22
2019-06-01T07:11:40.900Z,22.08
2019-06-01T07:14:07.646Z,22.53
2019-06-01T07:16:34.411Z,23.04
2019-06-01T07:19:01.176Z,22.54
2019-06-01T07:21:27.944Z,22.40
2019-06-01T07:23:54.684Z,22.72
2019-06-01T07:26:21.946Z,22.55
2019-06-01T07:28:48.248Z,22.72
2019-06-01T07:31:14.962Z,22.68
2019-06-01T07:33:41.695Z,23.45
2019-06-01T07:36:08.443Z,23.81
2019-06-01T07:38:35.154Z,23.42
2019-06-01T07:41:01.874Z,23.30
2019-06-01T07:43:28.963Z,23.06
2019-06-01T07:45:55.338Z,23.24
2019-06-01T07:48:23.097Z,23.25
2019-06-01T07:50:48.827Z,23.15
2019-06-01T07:53:15.598Z,23.58
2019-06-01T07:55:42.331Z,24.03
2019-06-01T07:58:09.154Z,24.01
2019-06-01T08:00:35.913Z,24.15
2019-06-01T08:03:02.642Z,23.88
2019-06-01T08:05:30.185Z,24.00
2019-06-01T08:07:56.130Z,24.51
2019-06-01T08:10:24.450Z,24.68
2019-06-01T08:12:49.693Z,25.01
2019-06-01T08:15:16.419Z,25.22
2019-06-01T08:17:43.147Z,25.21
2019-06-01T08:20:09.915Z,24.96
2019-06-01T08:22:36.662Z,24.82
2019-06-01T08:25:03.462Z,25.66
2019-06-01T08:27:30.625Z,25.65
2019-06-01T08:30:00.010Z,25.55
2019-06-01T08:32:26.742Z,25.47
2019-06-01T08:35:07.211Z,25.52
2019-06-01T08:37:20.207Z,24.97
2019-06-01T08:39:46.954Z,24.97
2019-06-01T08:42:13.673Z,24.82
2019-06-01T08:44:40.414Z,25.93
2019-06-01T08:47:07.219Z,26.04
2019-06-01T08:49:34.559Z,25.56
2019-06-01T08:52:00.685Z,26.12
2019-06-01T08:54:28.094Z,26.29
2019-06-01T08:56:54.232Z,26.54
2019-06-01T08:59:20.979Z,26.72
2019-06-01T09:01:47.702Z,26.46
2019-06-01T09:04:14.450Z,26.82
2019-06-01T09:06:41.185Z,26.75
2019-06-01T09:09:11.501Z,26.79
2019-06-01T09:11:35.341Z,26.83
2019-06-01T09:14:01.462Z,27.19
2019-06-01T09:16:29.523Z,27.49
2019-06-01T09:18:54.912Z,27.37
2019-06-01T09:21:21.649Z,27.43
2019-06-01T09:23:48.371Z,27.18
2019-06-01T09:26:15.111Z,26.91
2019-06-01T09:28:41.838Z,26.86
2019-06-01T09:31:08.580Z,27.73
2019-06-01T09:33:36.893Z,27.91
2019-06-01T09:36:02.054Z,27.66
2019-06-01T09:38:29.599Z,27.91
2019-06-01T09:40:55.536Z,27.91
2019-06-01T09:43:22.260Z,28.16
2019-06-01T09:45:52.989Z,28.07
2019-06-01T09:48:15.732Z,27.88
2019-06-01T09:50:42.478Z,27.81
2019-06-01T09:53:09.214Z,28.66
2019-06-01T09:55:36.464Z,28.38
2019-06-01T09:58:02.690Z,28.29
2019-06-01T10:00:30.318Z,28.46
2019-06-01T10:02:56.202Z,28.09
2019-06-01T10:05:22.944Z,28.40
2019-06-01T10:07:49.672Z,29.24
2019-06-01T10:10:16.441Z,28.79
2019-06-01T10:12:43.178Z,28.87
2019-06-01T10:15:09.918Z,28.79
2019-06-01T10:17:37.161Z,29.45
2019-06-01T10:20:03.758Z,29.19
2019-06-01T10:22:30.977Z,29.12
2019-06-01T10:24:57.250Z,28.78
2019-06-01T10:27:23.999Z,28.87
2019-06-01T10:29:50.723Z,28.37
2019-06-01T10:32:17.483Z,28.43
2019-06-01T10:34:44.243Z,28.66
2019-06-01T10:37:11.012Z,29.45
2019-06-01T10:39:37.754Z,30.06
2019-06-01T10:42:04.495Z,29.96
2019-06-01T10:44:31.644Z,29.91
2019-06-01T10:46:58.230Z,28.75
2019-06-01T10:49:24.969Z,29.04
2019-06-01T10:51:51.709Z,29.15
2019-06-01T10:54:18.442Z,28.93
2019-06-01T10:56:45.190Z,28.59
2019-06-01T10:59:11.921Z,28.57
2019-06-01T11:01:38.912Z,28.55
2019-06-01T11:04:05.412Z,28.69
2019-06-01T11:06:40.249Z,28.99
2019-06-01T11:08:58.946Z,29.20
2019-06-01T11:11:25.690Z,29.38
2019-06-01T11:13:52.439Z,28.79
2019-06-01T11:16:19.186Z,28.78
2019-06-01T11:18:45.916Z,28.72
2019-06-01T11:21:12.666Z,28.55
2019-06-01T11:23:42.762Z,28.76
2019-06-01T11:26:06.143Z,28.65
2019-06-01T11:28:33.837Z,28.61
2019-06-01T11:30:59.615Z,28.62
2019-06-01T11:33:26.460Z,28.64
2019-06-01T11:35:53.239Z,28.15
2019-06-01T11:38:19.961Z,28.48
2019-06-01T11:40:46.720Z,28.43
2019-06-01T11:43:13.442Z,28.24
2019-06-01T11:45:40.803Z,27.98
2019-06-01T11:48:06.936Z,27.89
2019-06-01T11:50:35.131Z,28.08
2019-06-01T11:53:00.429Z,28.41
2019-06-01T11:55:27.162Z,28.56
2019-06-01T11:57:53.950Z,28.92
2019-06-01T12:00:20.730Z,28.73
2019-06-01T12:02:47.475Z,28.81
2019-06-01T12:05:14.211Z,28.81
2019-06-01T12:07:41.975Z,28.72
2019-06-01T12:10:07.709Z,28.86
2019-06-01T12:12:35.901Z,29.51
2019-06-01T12:15:01.326Z,30.36
2019-06-01T12:17:28.048Z,30.16
2019-06-01T12:19:54.785Z,29.09
2019-06-01T12:22:21.547Z,29.11
2019-06-01T12:24:48.278Z,28.79
2019-06-01T12:27:15.086Z,29.32
2019-06-01T12:29:41.821Z,29.37
2019-06-01T12:32:08.571Z,29.07
2019-06-01T12:36:59.651Z,29.37
2019-06-01T12:39:26.380Z,29.44
2019-06-01T12:41:53.180Z,29.95
2019-06-01T12:44:19.865Z,29.77
2019-06-01T12:46:47.021Z,29.69
2019-06-01T12:49:13.370Z,29.50
2019-06-01T12:51:40.673Z,29.35
2019-06-01T12:54:06.882Z,29.57
2019-06-01T12:56:33.646Z,30.08
2019-06-01T12:59:00.462Z,30.68
2019-06-01T13:01:27.250Z,30.46
2019-06-01T13:03:54.005Z,29.88
2019-06-01T13:06:20.791Z,29.92
2019-06-01T13:08:47.564Z,30.06
2019-06-01T13:11:14.314Z,30.23
2019-06-01T13:13:41.272Z,29.93
2019-06-01T13:16:07.839Z,29.80
2019-06-01T13:18:34.592Z,29.85
2019-06-01T13:21:01.374Z,29.81
2019-06-01T13:23:28.169Z,29.34
2019-06-01T13:25:54.907Z,28.91
2019-06-01T13:28:37.331Z,29.16
2019-06-01T13:30:49.705Z,29.54
2019-06-01T13:33:15.538Z,29.94
2019-06-01T13:35:42.347Z,30.25
2019-06-01T13:38:12.179Z,30.05
2019-06-01T13:40:35.949Z,29.99
2019-06-01T13:43:02.798Z,29.58
2019-06-01T13:45:29.614Z,29.90
2019-06-01T13:47:56.367Z,30.26
2019-06-01T13:50:23.113Z,30.30
2019-06-01T13:52:50.093Z,29.91
2019-06-01T13:55:16.678Z,30.27
2019-06-01T13:57:44.196Z,30.89
2019-06-01T14:00:15.810Z,30.72
2019-06-01T14:02:41.415Z,31.07
2019-06-01T14:05:09.292Z,30.90
2019-06-01T14:07:37.637Z,31.41
2019-06-01T14:10:08.154Z,31.88
2019-06-01T14:12:39.272Z,31.38
2019-06-01T14:15:12.222Z,31.22
2019-06-01T14:17:40.803Z,31.09
2019-06-01T14:20:09.707Z,30.50
2019-06-01T14:22:37.788Z,30.42
2019-06-01T14:25:12.344Z,30.76
2019-06-01T14:27:34.209Z,30.89
2019-06-01T14:30:06.257Z,30.91
2019-06-01T14:32:34.865Z,30.53
2019-06-01T14:35:06.908Z,30.21
2019-06-01T14:37:34.588Z,30.04
2019-06-01T14:40:03.531Z,30.21
2019-06-01T14:42:31.968Z,30.29
2019-06-01T14:45:00.045Z,30.29
2019-06-01T14:47:29.408Z,30.41
2019-06-01T14:49:58.017Z,30.52
2019-06-01T14:52:27.220Z,31.03
2019-06-01T14:54:58.095Z,30.57
2019-06-01T14:57:25.298Z,31.00
2019-06-01T14:59:54.276Z,30.79
2019-06-01T15:02:25.127Z,30.28
2019-06-01T15:04:54.194Z,30.02
2019-06-01T15:07:21.223Z,30.18
2019-06-01T15:09:52.259Z,30.17
2019-06-01T15:12:21.121Z,30.39
2019-06-01T15:14:50.514Z,30.50
2019-06-01T15:17:17.423Z,31.33
2019-06-01T15:19:46.385Z,31.03
2019-06-01T15:22:16.499Z,30.89
2019-06-01T15:24:44.834Z,31.22
2019-06-01T15:27:16.433Z,30.91
2019-06-01T15:29:45.892Z,30.71
2019-06-01T15:32:16.057Z,30.93
2019-06-01T15:34:45.210Z,31.41
2019-06-01T15:37:14.468Z,31.26
2019-06-01T15:39:45.236Z,31.31
2019-06-01T15:42:12.246Z,31.58
2019-06-01T15:44:39.954Z,30.77
2019-06-01T15:47:12.560Z,30.90
2019-06-01T15:49:42.657Z,31.16
2019-06-01T15:52:13.218Z,31.17
2019-06-01T15:54:44.225Z,31.47
2019-06-01T15:57:12.884Z,31.39
2019-06-01T15:59:44.029Z,31.59
2019-06-01T16:02:12.498Z,31.64
2019-06-01T16:04:41.411Z,31.66
2019-06-01T16:07:09.679Z,31.64
2019-06-01T16:09:43.042Z,31.47
2019-06-01T16:12:11.414Z,30.83
2019-06-01T16:14:44.172Z,30.81
2019-06-01T16:17:13.443Z,30.54
2019-06-01T16:19:44.205Z,30.59
2019-06-01T16:22:13.895Z,30.21
2019-06-01T16:24:43.446Z,30.13
2019-06-01T16:27:11.778Z,30.22
2019-06-01T16:29:40.882Z,30.15
2019-06-01T16:32:12.373Z,30.33
2019-06-01T16:34:42.238Z,30.97
2019-06-01T16:37:12.095Z,30.79
2019-06-01T16:39:55.884Z,30.85
2019-06-01T16:42:09.897Z,30.56
2019-06-01T16:44:41.181Z,29.96
2019-06-01T16:47:12.001Z,30.07
2019-06-01T16:49:42.547Z,29.71
2019-06-01T16:52:11.769Z,30.17
2019-06-01T16:54:42.070Z,29.78
2019-06-01T16:57:12.681Z,30.24
2019-06-01T16:59:42.304Z,30.01
2019-06-01T17:02:11.096Z,29.98
2019-06-01T17:04:41.400Z,30.07
2019-06-01T17:07:11.336Z,30.32
2019-06-01T17:09:40.225Z,30.57
2019-06-01T17:12:08.018Z,30.95
2019-06-01T17:14:38.077Z,30.80
2019-06-01T17:17:07.572Z,31.02
2019-06-01T17:19:35.478Z,31.24
2019-06-01T17:22:05.512Z,32.21
2019-06-01T17:24:34.269Z,32.63
2019-06-01T17:27:04.004Z,33.45
2019-06-01T17:29:32.193Z,34.26
2019-06-01T17:32:19.021Z,34.47
2019-06-01T17:34:34.167Z,34.43
2019-06-01T17:37:02.741Z,34.17
2019-06-01T17:39:32.883Z,34.33
2019-06-01T17:42:02.389Z,34.45
2019-06-01T17:44:30.770Z,34.22
2019-06-01T17:47:06.304Z,33.77
2019-06-01T17:49:37.137Z,33.87
2019-06-01T17:52:05.845Z,33.72
2019-06-01T17:54:32.830Z,33.54
2019-06-01T17:57:01.227Z,33.51
2019-06-01T17:59:29.217Z,33.25
2019-06-01T18:01:58.500Z,33.24
2019-06-01T18:04:30.172Z,32.71
2019-06-01T18:07:01.699Z,32.50
2019-06-01T18:09:28.386Z,32.04
2019-06-01T18:11:57.539Z,31.58
2019-06-01T18:14:26.888Z,32.05
2019-06-01T18:16:55.042Z,31.24
2019-06-01T18:19:23.437Z,30.52
2019-06-01T18:21:52.900Z,29.92
2019-06-01T18:24:22.454Z,29.58
2019-06-01T18:26:51.672Z,29.40
2019-06-01T18:29:20.548Z,29.10
2019-06-01T18:31:48.254Z,28.68
2019-06-01T18:34:20.220Z,28.18
2019-06-01T18:36:53.965Z,28.00
2019-06-01T18:39:25.933Z,27.78
2019-06-01T18:41:57.348Z,27.30
2019-06-01T18:44:25.958Z,27.08
2019-06-01T18:46:54.253Z,26.92
2019-06-01T18:49:23.994Z,26.52
2019-06-01T18:51:53.818Z,26.46
2019-06-01T18:54:26.978Z,26.31
2019-06-01T18:57:09.038Z,26.33
2019-06-01T18:59:24.278Z,27.06
2019-06-01T19:01:55.480Z,27.01
2019-06-01T19:04:23.168Z,25.94
2019-06-01T19:06:53.099Z,25.74
2019-06-01T19:09:22.946Z,26.22
2019-06-01T19:11:52.439Z,25.52
2019-06-01T19:14:21.273Z,25.27
2019-06-01T19:16:50.828Z,25.03
2019-06-01T19:19:19.892Z,25.99
2019-06-01T19:21:48.444Z,25.10
2019-06-01T19:24:18.203Z,24.86
2019-06-01T19:26:48.723Z,24.71
2019-06-01T19:29:18.425Z,25.54
2019-06-01T19:31:47.331Z,24.65
2019-06-01T19:34:17.820Z,25.16
2019-06-01T19:36:46.052Z,24.05
2019-06-01T19:39:15.541Z,23.71
2019-06-01T19:41:45.621Z,23.41
2019-06-01T19:44:15.813Z,24.30
2019-06-01T19:46:43.442Z,23.60
2019-06-01T19:49:13.675Z,24.52
2019-06-01T19:51:41.138Z,23.80
2019-06-01T19:54:10.793Z,23.68
2019-06-01T19:56:38.614Z,23.54
2019-06-01T19:59:06.303Z,23.19
2019-06-01T20:01:37.418Z,23.05
2019-06-01T20:04:08.130Z,22.95
2019-06-01T20:06:37.532Z,22.93
2019-06-01T20:09:15.050Z,22.83
2019-06-01T20:12:01.018Z,22.60
2019-06-01T20:14:16.424Z,22.39
2019-06-01T20:16:46.421Z,22.30
2019-06-01T20:19:15.663Z,23.07
2019-06-01T20:21:46.240Z,22.24
2019-06-01T20:24:15.267Z,22.08
2019-06-01T20:26:49.385Z,23.00
2019-06-01T20:29:19.663Z,22.38
2019-06-01T20:31:47.459Z,23.23
2019-06-01T20:34:16.218Z,22.52
2019-06-01T20:36:45.190Z,22.31
2019-06-01T20:39:18.366Z,22.30
2019-06-01T20:41:48.363Z,22.23
2019-06-01T20:44:18.826Z,22.92
2019-06-01T20:46:46.942Z,22.27
2019-06-01T20:49:16.846Z,22.13
2019-06-01T20:51:46.385Z,22.71
2019-06-01T20:54:17.178Z,22.05
2019-06-01T20:56:48.124Z,21.95
2019-06-01T20:59:18.540Z,21.71
2019-06-01T21:01:45.590Z,21.54
2019-06-01T21:04:16.265Z,21.37
2019-06-01T21:06:45.356Z,21.13
2019-06-01T21:09:15.972Z,21.27
2019-06-01T21:11:46.267Z,21.19
2019-06-01T21:14:15.935Z,21.02
2019-06-01T21:16:44.336Z,21.04
2019-06-01T21:19:14.442Z,21.07
2019-06-01T21:21:43.953Z,21.12
2019-06-01T21:24:12.589Z,21.71
2019-06-01T21:26:44.036Z,21.09
2019-06-01T21:29:14.571Z,21.06
2019-06-01T21:31:41.986Z,20.97
2019-06-01T21:34:15.079Z,21.06
2019-06-01T21:36:43.042Z,21.66
2019-06-01T21:39:11.902Z,21.01
2019-06-01T21:41:40.646Z,20.73
2019-06-01T21:44:11.925Z,20.64
2019-06-01T21:46:40.842Z,20.68
2019-06-01T21:49:11.946Z,20.82
2019-06-01T21:51:42.314Z,20.69
2019-06-01T21:54:13.290Z,20.64
2019-06-01T21:56:46.265Z,20.59
2019-06-01T21:59:12.066Z,21.20
2019-06-01T22:01:41.544Z,20.41
2019-06-01T22:04:11.081Z,20.56
2019-06-01T22:06:39.729Z,20.44
2019-06-01T22:09:12.351Z,20.41
2019-06-01T22:11:41.333Z,20.94
2019-06-01T22:14:12.369Z,20.45
2019-06-01T22:16:40.407Z,20.75
2019-06-01T22:19:09.872Z,20.51
2019-06-01T22:24:15.042Z,19.93
2019-06-01T22:26:46.045Z,19.99
2019-06-01T22:29:18.501Z,19.80
2019-06-01T22:31:47.223Z,20.35
2019-06-01T22:34:18.562Z,19.88
2019-06-01T22:36:49.019Z,20.52
2019-06-01T22:39:21.001Z,19.76
2019-06-01T22:41:49.221Z,19.85
2019-06-01T22:44:20.070Z,19.82
2019-06-01T22:46:51.362Z,20.31
2019-06-01T22:49:24.723Z,19.55
2019-06-01T22:51:53.366Z,19.38
2019-06-01T22:54:25.260Z,19.29
2019-06-01T22:56:53.928Z,20.13
2019-06-01T22:59:24.453Z,19.45
2019-06-01T23:01:55.309Z,20.15
2019-06-01T23:04:25.386Z,19.37
2019-06-01T23:06:56.184Z,19.17
2019-06-01T23:09:25.520Z,18.95
2019-06-01T23:12:02.772Z,18.95
2019-06-01T23:14:35.006Z,18.63
2019-06-01T23:17:05.243Z,19.04
2019-06-01T23:19:36.592Z,18.62
2019-06-01T23:22:08.163Z,18.22
2019-06-01T23:24:38.551Z,18.95
2019-06-01T23:27:11.475Z,19.13
2019-06-01T23:29:39.709Z,18.57
2019-06-01T23:32:10.004Z,18.58
2019-06-01T23:34:42.220Z,19.35
2019-06-01T23:37:12.821Z,18.86
2019-06-01T23:39:43.457Z,18.74
2019-06-01T23:42:12.582Z,18.57
2019-06-01T23:44:40.361Z,18.42
2019-06-01T23:47:12.457Z,18.55
2019-06-01T23:49:41.385Z,19.28
2019-06-01T23:52:10.294Z,18.77
2019-06-01T23:54:39.433Z,18.62
2019-06-01T23:57:09.554Z,18.35
2019-06-01T23:59:37.862Z,18.25
